Time;durP1;ratioP1;P1;durP2;ratioP2;P2;SDS_P1;SDS_P2;PMS_P1;PMS_P2;Temp;Humidity;BMP_temperature;BMP_pressure;BME280_temperature;BME280_humidity;BME280_pressure;Samples;Min_cycle;Max_cycle;Signal;HPM_P1;HPM_P2
2022/03/13 00:02:21;;;;;;;16.38;13.52;;;7.90;98.60;;;;;;5047052;28;20056;-66
2022/03/13 00:04:51;;;;;;;16.30;12.98;;;7.90;98.80;;;;;;5067568;28;20047;-66
2022/03/13 00:07:19;;;;;;;15.95;13.38;;;7.80;99.00;;;;;;5067394;28;20044;-66
2022/03/13 00:09:48;;;;;;;15.70;12.77;;;7.80;99.20;;;;;;5066101;28;20170;-66
2022/03/13 00:12:15;;;;;;;16.85;13.07;;;7.80;99.50;;;;;;5066286;28;20135;-66
2022/03/13 00:14:44;;;;;;;19.23;12.02;;;7.80;99.60;;;;;;5065393;28;20509;-66
2022/03/13 00:17:15;;;;;;;16.63;12.90;;;7.80;99.40;;;;;;5063813;28;20051;-67
2022/03/13 00:19:41;;;;;;;14.82;13.10;;;7.80;99.30;;;;;;5063770;28;20511;-66
2022/03/13 00:22:07;;;;;;;17.65;12.55;;;7.80;99.60;;;;;;5065204;28;20402;-66
2022/03/13 00:24:34;;;;;;;18.52;13.30;;;7.80;99.70;;;;;;5064760;28;20032;-66
2022/03/13 00:27:00;;;;;;;15.40;13.05;;;7.80;99.70;;;;;;5062777;28;20033;-66
2022/03/13 00:29:29;;;;;;;15.93;13.45;;;7.80;99.90;;;;;;5068320;28;20040;-66
2022/03/13 00:31:55;;;;;;;14.93;13.25;;;7.80;99.90;;;;;;5063716;28;20123;-66
2022/03/13 00:34:21;;;;;;;15.32;13.10;;;7.80;99.80;;;;;;5065770;28;20044;-67
2022/03/13 00:36:46;;;;;;;17.58;13.38;;;7.80;99.90;;;;;;5068598;28;20036;-67
2022/03/13 00:39:12;;;;;;;16.02;13.32;;;7.80;99.90;;;;;;5058430;28;20036;-66
2022/03/13 00:41:38;;;;;;;13.90;12.40;;;7.80;99.90;;;;;;5068595;28;20037;-67
2022/03/13 00:44:05;;;;;;;17.50;12.73;;;7.80;99.90;;;;;;5064844;28;20569;-66
2022/03/13 00:46:31;;;;;;;23.08;12.55;;;7.70;99.90;;;;;;5068959;28;20040;-66
2022/03/13 00:48:57;;;;;;;17.50;13.27;;;7.70;99.90;;;;;;5064292;28;20067;-67
2022/03/13 00:51:22;;;;;;;15.50;13.18;;;7.70;99.90;;;;;;5065669;28;20044;-66
2022/03/13 00:53:48;;;;;;;15.48;13.05;;;7.70;99.90;;;;;;5066271;28;20074;-66
2022/03/13 00:56:14;;;;;;;16.02;13.02;;;7.70;99.90;;;;;;5064019;28;20688;-66
2022/03/13 00:58:40;;;;;;;15.85;12.93;;;7.70;99.90;;;;;;5064918;28;20067;-66
2022/03/13 01:01:07;;;;;;;17.85;12.30;;;7.70;99.90;;;;;;5066134;28;20391;-66
2022/03/13 01:03:35;;;;;;;15.45;13.60;;;7.70;99.90;;;;;;5067992;28;20044;-66
2022/03/13 01:06:03;;;;;;;16.52;13.68;;;7.70;99.90;;;;;;5071624;28;20033;-66
2022/03/13 01:08:29;;;;;;;16.98;13.57;;;7.70;99.90;;;;;;5079601;28;20037;-66
2022/03/13 01:10:55;;;;;;;15.13;12.90;;;7.70;99.90;;;;;;5067544;28;20243;-66
2022/03/13 01:13:21;;;;;;;19.50;12.90;;;7.70;99.90;;;;;;5069642;28;20048;-66
2022/03/13 01:15:49;;;;;;;15.88;13.77;;;7.70;99.90;;;;;;5065533;28;20052;-66
2022/03/13 01:18:15;;;;;;;18.08;14.00;;;7.60;99.90;;;;;;5069068;28;20522;-66
2022/03/13 01:20:41;;;;;;;14.75;13.10;;;7.70;99.90;;;;;;5065034;28;20048;-67
2022/03/13 01:23:11;;;;;;;18.05;13.82;;;7.70;99.90;;;;;;5070567;28;20040;-66
2022/03/13 01:25:37;;;;;;;18.90;13.50;;;7.70;99.90;;;;;;5068016;28;21119;-66
2022/03/13 01:28:04;;;;;;;15.35;12.13;;;7.60;99.90;;;;;;5071597;28;20383;-66
2022/03/13 01:30:29;;;;;;;18.13;13.18;;;7.60;99.90;;;;;;5069075;28;20047;-66
2022/03/13 01:32:55;;;;;;;13.75;12.27;;;7.60;99.90;;;;;;5070026;28;20037;-66
2022/03/13 01:35:23;;;;;;;14.98;12.40;;;7.60;99.90;;;;;;5069930;28;20040;-66
2022/03/13 01:37:50;;;;;;;15.07;13.30;;;7.60;99.90;;;;;;5069271;28;20032;-66
2022/03/13 01:40:22;;;;;;;16.23;12.68;;;7.60;99.90;;;;;;5067170;28;20048;-66
2022/03/13 01:42:48;;;;;;;13.73;12.23;;;7.60;99.90;;;;;;5069964;28;20580;-67
2022/03/13 01:45:19;;;;;;;13.98;11.63;;;7.70;99.90;;;;;;5067879;28;20040;-66
2022/03/13 01:47:46;;;;;;;14.45;12.68;;;7.70;99.90;;;;;;5067951;28;20036;-66
2022/03/13 01:50:13;;;;;;;15.32;11.27;;;7.80;99.90;;;;;;5066955;28;20049;-66
2022/03/13 01:52:44;;;;;;;14.50;12.05;;;7.80;99.90;;;;;;5069558;28;20049;-66
2022/03/13 01:55:10;;;;;;;13.73;11.52;;;7.90;99.90;;;;;;5069178;28;20379;-66
2022/03/13 01:57:38;;;;;;;18.05;12.32;;;7.90;99.90;;;;;;5069482;28;20032;-67
2022/03/13 02:00:07;;;;;;;16.55;12.77;;;8.00;99.90;;;;;;5068121;28;20133;-66
2022/03/13 02:02:34;;;;;;;14.93;11.07;;;8.10;99.90;;;;;;5070129;28;20383;-67
2022/03/13 02:05:01;;;;;;;13.75;11.20;;;8.20;99.90;;;;;;5071041;28;20109;-66
2022/03/13 02:07:28;;;;;;;14.15;12.63;;;8.20;99.90;;;;;;5071591;28;20078;-66
2022/03/13 02:09:55;;;;;;;15.30;12.40;;;8.20;99.90;;;;;;5066070;28;20440;-66
2022/03/13 02:12:23;;;;;;;14.25;11.77;;;8.30;99.90;;;;;;5069097;28;20149;-67
2022/03/13 02:14:49;;;;;;;13.52;11.50;;;8.30;99.70;;;;;;5068329;28;20052;-66
2022/03/13 02:17:35;;;;;;;15.45;12.30;;;8.40;99.70;;;;;;5068776;28;20474;-66
2022/03/13 02:20:01;;;;;;;15.43;11.55;;;8.40;99.30;;;;;;5099258;28;20128;-66
2022/03/13 02:22:27;;;;;;;17.08;12.90;;;8.40;99.30;;;;;;5070610;28;20119;-67
2022/03/13 02:24:53;;;;;;;14.60;12.38;;;8.50;99.00;;;;;;5069693;28;20139;-66
2022/03/13 02:27:25;;;;;;;14.32;12.10;;;8.50;98.80;;;;;;5069298;28;20072;-66
2022/03/13 02:29:51;;;;;;;14.25;12.05;;;8.50;98.80;;;;;;5072257;28;20040;-66
2022/03/13 02:32:18;;;;;;;21.55;13.50;;;8.50;98.80;;;;;;5074344;28;20051;-66
2022/03/13 02:34:45;;;;;;;15.55;12.10;;;8.50;99.10;;;;;;5070817;28;20461;-66
2022/03/13 02:37:34;;;;;;;13.95;11.68;;;8.50;98.70;;;;;;5068419;28;20148;-66
2022/03/13 02:39:59;;;;;;;14.25;12.02;;;8.50;98.90;;;;;;5093714;27;20106;-66
2022/03/13 02:42:25;;;;;;;12.95;11.57;;;8.40;98.90;;;;;;5099944;28;20040;-66
2022/03/13 02:44:51;;;;;;;16.67;12.68;;;8.50;99.10;;;;;;5070500;28;22012;-66
2022/03/13 02:47:16;;;;;;;14.43;12.05;;;8.40;99.20;;;;;;5070964;28;20421;-66
2022/03/13 02:49:42;;;;;;;14.13;11.60;;;8.40;99.00;;;;;;5070907;28;20058;-66
2022/03/13 02:52:08;;;;;;;13.48;11.50;;;8.40;98.90;;;;;;5071609;28;20044;-66
2022/03/13 02:54:33;;;;;;;16.42;12.27;;;8.40;99.00;;;;;;5067463;28;20343;-66
2022/03/13 02:57:00;;;;;;;15.77;11.50;;;8.40;99.20;;;;;;5072054;28;20044;-66
2022/03/13 02:59:26;;;;;;;13.13;11.38;;;8.40;99.60;;;;;;5051377;28;20047;-66
2022/03/13 03:01:52;;;;;;;17.88;12.75;;;8.30;99.80;;;;;;5072968;28;20028;-66
2022/03/13 03:04:22;;;;;;;15.07;11.98;;;8.30;99.90;;;;;;5072235;28;20375;-66
2022/03/13 03:06:55;;;;;;;15.80;11.73;;;8.30;99.90;;;;;;5096433;28;20072;-66
2022/03/13 03:09:21;;;;;;;17.35;12.45;;;8.20;99.90;;;;;;5048346;28;20093;-66
2022/03/13 03:11:47;;;;;;;18.70;12.52;;;8.20;99.90;;;;;;5073433;28;20398;-66
2022/03/13 03:14:13;;;;;;;13.02;11.65;;;8.20;99.90;;;;;;5065477;28;20122;-66
2022/03/13 03:16:39;;;;;;;15.88;12.52;;;8.20;99.90;;;;;;5069199;28;20093;-66
2022/03/13 03:19:04;;;;;;;13.30;11.90;;;8.10;99.90;;;;;;5070309;28;20044;-66
2022/03/13 03:21:30;;;;;;;14.07;12.35;;;8.10;99.90;;;;;;5070496;28;20047;-66
2022/03/13 03:23:56;;;;;;;16.15;12.32;;;8.10;99.90;;;;;;5067558;28;20540;-66
2022/03/13 03:26:22;;;;;;;15.90;12.70;;;8.00;99.90;;;;;;5069571;28;20045;-66
2022/03/13 03:28:47;;;;;;;13.90;12.32;;;8.00;99.90;;;;;;5068065;28;20052;-66
2022/03/13 03:31:13;;;;;;;17.17;13.30;;;7.90;99.90;;;;;;5067071;28;20415;-66
2022/03/13 03:33:38;;;;;;;15.05;13.38;;;7.80;99.90;;;;;;5070425;28;20040;-66
2022/03/13 03:36:04;;;;;;;16.33;12.40;;;7.70;99.90;;;;;;5097969;28;20087;-66
2022/03/13 03:38:30;;;;;;;17.10;13.32;;;7.70;99.90;;;;;;5068958;28;20049;-66
2022/03/13 03:40:56;;;;;;;18.52;13.23;;;7.60;99.90;;;;;;5071237;28;20042;-66
2022/03/13 03:43:21;;;;;;;18.65;13.63;;;7.50;99.90;;;;;;5067305;28;20036;-66
2022/03/13 03:45:47;;;;;;;17.88;13.77;;;7.40;99.90;;;;;;5070202;28;20044;-67
2022/03/13 03:48:13;;;;;;;19.60;14.45;;;7.30;99.90;;;;;;5066967;28;20123;-67
2022/03/13 03:50:38;;;;;;;18.13;14.38;;;7.20;99.90;;;;;;5069240;28;20032;-66
2022/03/13 03:53:04;;;;;;;18.08;14.88;;;7.20;99.90;;;;;;5068032;28;20210;-66
2022/03/13 03:55:29;;;;;;;15.60;13.98;;;7.00;99.90;;;;;;5068100;28;20325;-66
2022/03/13 03:57:55;;;;;;;17.25;13.52;;;7.00;99.90;;;;;;5066467;28;20514;-66
2022/03/13 04:00:24;;;;;;;18.17;13.77;;;7.00;99.90;;;;;;5067737;28;20102;-66
2022/03/13 04:02:50;;;;;;;16.27;14.02;;;6.90;99.90;;;;;;5097094;28;20093;-66
2022/03/13 04:05:16;;;;;;;17.83;14.75;;;6.90;99.90;;;;;;5096925;28;20124;-66
2022/03/13 04:07:41;;;;;;;16.50;13.73;;;6.90;99.90;;;;;;5067914;28;20123;-66
2022/03/13 04:10:08;;;;;;;15.50;13.18;;;6.80;99.90;;;;;;5067812;28;20132;-66
2022/03/13 04:12:40;;;;;;;15.77;13.90;;;6.70;99.90;;;;;;5066393;28;20537;-66
2022/03/13 04:15:06;;;;;;;17.90;14.32;;;6.70;99.90;;;;;;5068387;28;20082;-66
2022/03/13 04:17:32;;;;;;;16.20;14.27;;;6.70;99.90;;;;;;5067467;28;20043;-66
2022/03/13 04:19:58;;;;;;;20.38;14.85;;;6.70;99.90;;;;;;5067633;28;20040;-66
2022/03/13 04:22:23;;;;;;;16.02;14.20;;;6.70;99.90;;;;;;5069351;28;20036;-66
2022/03/13 04:24:49;;;;;;;17.00;13.32;;;6.70;99.90;;;;;;5066957;28;20064;-66
2022/03/13 04:27:15;;;;;;;20.00;14.25;;;6.70;99.90;;;;;;5069329;28;20055;-66
2022/03/13 04:29:41;;;;;;;17.40;14.50;;;6.60;99.90;;;;;;5064552;28;20044;-66
2022/03/13 04:32:08;;;;;;;21.25;14.32;;;6.60;99.90;;;;;;5067637;28;20119;-66
2022/03/13 04:34:35;;;;;;;16.02;13.27;;;6.60;99.90;;;;;;5068577;28;20537;-66
2022/03/13 04:37:01;;;;;;;18.58;14.15;;;6.60;99.90;;;;;;5070105;28;20097;-66
2022/03/13 04:39:28;;;;;;;18.60;14.65;;;6.60;99.90;;;;;;5066680;28;20049;-66
2022/03/13 04:41:54;;;;;;;19.42;14.45;;;6.60;99.90;;;;;;5067324;28;20028;-66
2022/03/13 04:44:21;;;;;;;20.10;14.35;;;6.60;99.90;;;;;;5066494;28;20037;-66
2022/03/13 04:46:47;;;;;;;16.08;14.15;;;6.60;99.90;;;;;;5066466;28;20042;-66
2022/03/13 04:49:12;;;;;;;17.63;14.05;;;6.60;99.90;;;;;;5096555;28;20051;-66
2022/03/13 04:51:39;;;;;;;17.17;13.68;;;6.60;99.90;;;;;;5066164;28;20585;-66
2022/03/13 04:54:06;;;;;;;17.42;14.18;;;6.60;99.90;;;;;;5067122;28;20162;-66
2022/03/13 04:56:32;;;;;;;18.63;14.63;;;6.60;99.90;;;;;;5068644;28;20395;-66
2022/03/13 04:59:00;;;;;;;20.77;14.57;;;6.60;99.90;;;;;;5065349;28;20040;-66
2022/03/13 05:01:26;;;;;;;16.42;13.40;;;6.60;99.90;;;;;;5066656;28;20047;-66
2022/03/13 05:03:53;;;;;;;19.05;14.35;;;6.50;99.90;;;;;;5066733;28;20383;-66
2022/03/13 05:06:19;;;;;;;15.45;13.63;;;6.50;99.90;;;;;;5064307;28;20040;-66
2022/03/13 05:08:45;;;;;;;16.60;14.43;;;6.40;99.90;;;;;;5066287;28;20051;-66
2022/03/13 05:11:10;;;;;;;16.52;14.15;;;6.40;99.90;;;;;;5067193;28;20125;-66
2022/03/13 05:13:37;;;;;;;19.08;14.25;;;6.30;99.90;;;;;;5068940;28;20051;-66
2022/03/13 05:16:03;;;;;;;20.75;14.73;;;6.30;99.90;;;;;;5064243;28;20049;-66
2022/03/13 05:18:29;;;;;;;16.27;14.35;;;6.30;99.90;;;;;;5067187;28;20032;-66
2022/03/13 05:20:55;;;;;;;17.83;15.18;;;6.20;99.90;;;;;;5067334;28;20486;-66
2022/03/13 05:23:20;;;;;;;23.08;14.02;;;6.20;99.90;;;;;;5067417;28;20523;-66
2022/03/13 05:25:46;;;;;;;16.92;14.20;;;6.20;99.90;;;;;;5069110;28;20064;-66
2022/03/13 05:28:11;;;;;;;17.20;14.15;;;6.10;99.90;;;;;;5065439;28;20049;-66
2022/03/13 05:30:39;;;;;;;16.65;13.90;;;6.00;99.90;;;;;;5067553;28;20064;-66
2022/03/13 05:33:06;;;;;;;19.52;14.52;;;6.00;99.90;;;;;;5068559;28;20062;-66
2022/03/13 05:35:32;;;;;;;22.10;14.75;;;6.00;99.90;;;;;;5067804;28;20402;-66
2022/03/13 05:37:58;;;;;;;16.08;13.65;;;6.00;99.90;;;;;;5066921;28;20123;-66
2022/03/13 05:40:24;;;;;;;17.75;14.27;;;5.90;99.90;;;;;;5064283;28;20051;-66
2022/03/13 05:42:55;;;;;;;15.13;13.10;;;6.00;99.90;;;;;;5066833;28;20042;-66
2022/03/13 05:45:22;;;;;;;20.35;14.13;;;6.00;99.90;;;;;;5067036;28;20036;-66
2022/03/13 05:47:52;;;;;;;19.85;14.40;;;6.00;99.90;;;;;;5069067;28;20028;-66
2022/03/13 05:50:20;;;;;;;21.38;13.98;;;6.00;99.90;;;;;;5068130;28;20048;-66
2022/03/13 05:52:48;;;;;;;16.73;14.70;;;6.00;99.90;;;;;;5071799;28;20044;-66
2022/03/13 05:55:14;;;;;;;17.27;14.20;;;6.00;99.90;;;;;;5101385;28;20048;-66
2022/03/13 05:57:40;;;;;;;18.85;13.70;;;6.10;99.90;;;;;;5069459;28;20502;-66
2022/03/13 06:00:11;;;;;;;16.50;13.45;;;6.00;99.90;;;;;;5070685;28;20041;-66
2022/03/13 06:02:38;;;;;;;16.55;13.73;;;6.00;99.90;;;;;;5069659;28;20037;-66
2022/03/13 06:05:06;;;;;;;16.45;13.75;;;6.00;99.90;;;;;;5068260;28;20040;-66
2022/03/13 06:07:32;;;;;;;17.75;14.60;;;6.00;99.90;;;;;;5069336;28;20147;-66
2022/03/13 06:09:57;;;;;;;15.82;12.45;;;5.90;99.90;;;;;;5069530;28;20515;-66
2022/03/13 06:12:23;;;;;;;15.73;12.80;;;5.90;99.90;;;;;;5070823;28;20048;-66
2022/03/13 06:14:49;;;;;;;16.40;12.07;;;6.00;99.90;;;;;;5069516;28;20072;-66
2022/03/13 06:17:14;;;;;;;19.17;12.88;;;6.10;99.90;;;;;;5070810;28;20525;-66
2022/03/13 06:19:44;;;;;;;15.50;11.93;;;6.10;99.90;;;;;;5068946;28;20044;-66
2022/03/13 06:22:11;;;;;;;14.05;11.43;;;6.20;99.90;;;;;;5070925;28;20079;-66
2022/03/13 06:24:37;;;;;;;17.63;12.27;;;6.30;99.90;;;;;;5070578;28;20040;-66
2022/03/13 06:27:03;;;;;;;14.85;12.48;;;6.50;99.90;;;;;;5067602;28;20063;-66
2022/03/13 06:29:31;;;;;;;15.82;12.13;;;6.80;99.90;;;;;;5068719;28;20063;-66
2022/03/13 06:31:58;;;;;;;13.70;11.27;;;7.10;99.90;;;;;;5066913;28;20779;-66
2022/03/13 06:34:24;;;;;;;12.75;10.90;;;7.70;99.90;;;;;;5068784;28;20422;-66
2022/03/13 06:36:50;;;;;;;14.75;11.15;;;8.40;98.90;;;;;;5067166;28;20071;-66
2022/03/13 06:39:15;;;;;;;12.80;11.32;;;8.80;96.10;;;;;;5069427;28;20072;-66
2022/03/13 06:41:41;;;;;;;14.43;11.35;;;9.10;94.60;;;;;;5065721;28;20037;-66
2022/03/13 06:44:06;;;;;;;14.27;11.45;;;9.20;94.00;;;;;;5067738;28;20067;-66
2022/03/13 06:46:32;;;;;;;13.43;11.30;;;8.80;92.50;;;;;;5067178;28;20040;-66
2022/03/13 06:48:59;;;;;;;15.57;11.07;;;8.50;93.30;;;;;;5065508;28;20060;-66
2022/03/13 06:51:25;;;;;;;12.25;10.65;;;8.30;94.20;;;;;;5098486;28;20406;-66
2022/03/13 06:53:50;;;;;;;13.52;10.35;;;8.10;94.30;;;;;;5068765;28;20036;-66
2022/03/13 06:56:16;;;;;;;16.25;12.02;;;7.80;94.80;;;;;;5067951;28;20118;-66
2022/03/13 06:58:42;;;;;;;13.82;11.77;;;7.60;95.40;;;;;;5067473;28;20044;-66
2022/03/13 07:01:08;;;;;;;13.38;10.27;;;7.70;95.80;;;;;;5067765;28;20679;-66
2022/03/13 07:03:34;;;;;;;15.15;10.90;;;7.80;95.30;;;;;;5101306;28;20055;-66
2022/03/13 07:06:04;;;;;;;15.50;11.88;;;7.70;94.70;;;;;;5066155;28;20071;-66
2022/03/13 07:08:32;;;;;;;13.75;12.27;;;7.70;95.20;;;;;;5067081;28;20525;-66
2022/03/13 07:10:59;;;;;;;13.55;11.27;;;7.50;95.60;;;;;;5066036;28;20479;-66
2022/03/13 07:13:26;;;;;;;15.32;11.43;;;7.50;95.70;;;;;;5068984;28;20051;-66
2022/03/13 07:15:52;;;;;;;15.73;10.13;;;7.40;95.60;;;;;;5067214;28;20105;-66
2022/03/13 07:18:18;;;;;;;13.32;11.70;;;7.50;95.60;;;;;;5068728;28;20417;-66
2022/03/13 07:20:44;;;;;;;15.82;10.68;;;7.60;95.50;;;;;;5067481;28;20036;-66
2022/03/13 07:23:09;;;;;;;14.73;10.45;;;7.70;94.70;;;;;;5066255;28;20032;-66
2022/03/13 07:25:35;;;;;;;14.80;10.82;;;7.70;94.80;;;;;;5063721;28;20089;-66
2022/03/13 07:28:01;;;;;;;11.55;10.00;;;7.70;95.00;;;;;;5068804;28;20558;-66
2022/03/13 07:30:27;;;;;;;14.23;10.40;;;7.70;94.60;;;;;;5067912;28;20102;-66
2022/03/13 07:32:52;;;;;;;13.57;10.80;;;7.70;94.50;;;;;;5098829;28;20052;-67
2022/03/13 07:35:18;;;;;;;17.05;11.00;;;8.10;94.30;;;;;;5066564;28;20051;-66
2022/03/13 07:37:44;;;;;;;13.13;10.30;;;8.20;93.40;;;;;;5068039;28;20048;-68
2022/03/13 07:40:10;;;;;;;12.77;10.88;;;8.10;93.20;;;;;;5068226;28;20040;-66
2022/03/13 07:42:36;;;;;;;12.60;9.82;;;8.20;93.80;;;;;;5066100;28;20105;-67
2022/03/13 07:45:01;;;;;;;11.77;10.57;;;8.30;93.60;;;;;;5066516;28;20033;-66
2022/03/13 07:47:27;;;;;;;12.98;10.20;;;8.30;93.70;;;;;;5083555;28;20044;-66
2022/03/13 07:49:53;;;;;;;12.80;9.90;;;8.40;93.50;;;;;;5068353;28;20036;-66
2022/03/13 07:52:19;;;;;;;16.27;10.88;;;8.40;93.00;;;;;;5066300;28;20043;-66
2022/03/13 07:54:44;;;;;;;16.50;11.63;;;8.50;93.60;;;;;;5065892;28;20049;-66
2022/03/13 07:57:10;;;;;;;12.35;9.63;;;8.50;92.90;;;;;;5068365;28;20055;-66
2022/03/13 07:59:36;;;;;;;13.02;10.25;;;8.50;92.60;;;;;;5066882;28;20045;-66
2022/03/13 08:02:02;;;;;;;13.57;9.55;;;8.50;93.00;;;;;;5064099;28;20068;-66
2022/03/13 08:04:28;;;;;;;13.20;10.48;;;8.50;92.00;;;;;;5065847;28;20047;-66
2022/03/13 08:06:53;;;;;;;12.05;10.02;;;8.60;91.70;;;;;;5063999;28;20491;-66
2022/03/13 08:09:19;;;;;;;14.73;9.65;;;8.70;91.10;;;;;;5067957;28;20143;-66
2022/03/13 08:11:45;;;;;;;13.25;10.02;;;8.70;90.40;;;;;;5066701;28;20067;-66
2022/03/13 08:14:12;;;;;;;11.23;9.55;;;8.90;89.80;;;;;;5068919;28;20089;-67
2022/03/13 08:16:38;;;;;;;13.05;10.10;;;9.10;90.80;;;;;;5063618;28;20049;-66
2022/03/13 08:19:05;;;;;;;14.05;10.10;;;9.10;90.40;;;;;;5071080;28;20044;-66
2022/03/13 08:21:31;;;;;;;12.63;9.73;;;9.20;88.70;;;;;;5065118;28;20482;-67
2022/03/13 08:23:57;;;;;;;12.57;9.85;;;9.30;88.80;;;;;;5060656;28;20623;-66
2022/03/13 08:26:32;;;;;;;13.15;9.55;;;9.40;87.30;;;;;;5095998;28;20041;-67
2022/03/13 08:28:58;;;;;;;13.85;10.15;;;9.50;85.70;;;;;;5055980;28;20163;-67
2022/03/13 08:31:24;;;;;;;11.13;9.48;;;9.50;84.20;;;;;;5063130;28;20132;-67
2022/03/13 08:33:50;;;;;;;12.00;9.38;;;9.60;87.20;;;;;;5067717;28;20037;-66
2022/03/13 08:36:16;;;;;;;12.60;8.88;;;9.80;83.90;;;;;;5064313;28;20060;-66
2022/03/13 08:38:42;;;;;;;10.52;8.70;;;10.00;82.50;;;;;;5065179;28;20044;-66
2022/03/13 08:41:08;;;;;;;10.95;8.75;;;10.10;79.50;;;;;;5066095;28;20090;-67
2022/03/13 08:43:33;;;;;;;12.02;9.48;;;10.30;82.30;;;;;;5065342;28;20028;-66
2022/03/13 08:46:00;;;;;;;11.85;8.90;;;10.50;79.50;;;;;;5069069;28;20063;-67
2022/03/13 08:48:26;;;;;;;10.57;9.00;;;10.40;76.50;;;;;;5065524;28;20090;-67
2022/03/13 08:50:51;;;;;;;14.90;9.88;;;10.50;76.10;;;;;;5067194;28;20048;-67
2022/03/13 08:53:17;;;;;;;16.13;9.48;;;10.40;76.40;;;;;;5066016;28;20127;-66
2022/03/13 08:55:43;;;;;;;13.40;9.68;;;10.50;78.00;;;;;;5067964;28;20039;-67
2022/03/13 08:58:09;;;;;;;10.75;9.32;;;10.30;75.70;;;;;;5066520;28;20480;-67
2022/03/13 09:00:37;;;;;;;12.77;8.60;;;10.30;75.30;;;;;;5067671;28;20078;-67
2022/03/13 09:03:02;;;;;;;12.40;9.27;;;10.40;77.10;;;;;;5067517;28;20045;-67
2022/03/13 09:05:28;;;;;;;14.18;9.95;;;10.50;76.40;;;;;;5068920;28;20041;-67
2022/03/13 09:07:54;;;;;;;13.27;8.95;;;10.70;75.70;;;;;;5068672;28;20173;-67
2022/03/13 09:10:20;;;;;;;12.23;9.55;;;10.80;75.60;;;;;;5066490;28;20049;-67
2022/03/13 09:12:45;;;;;;;11.02;9.38;;;10.80;72.30;;;;;;5071538;28;20043;-67
2022/03/13 09:15:11;;;;;;;12.15;9.63;;;10.90;73.10;;;;;;5073919;28;20040;-67
2022/03/13 09:17:37;;;;;;;12.73;8.95;;;11.10;74.50;;;;;;5065162;28;20047;-67
2022/03/13 09:20:04;;;;;;;13.73;9.25;;;11.30;73.00;;;;;;5047274;28;20098;-67
2022/03/13 09:22:30;;;;;;;11.68;9.13;;;11.50;71.80;;;;;;5067007;28;20685;-67
2022/03/13 09:24:58;;;;;;;16.55;9.30;;;11.60;67.90;;;;;;5068080;28;20402;-67
2022/03/13 09:27:28;;;;;;;11.20;9.80;;;11.60;71.40;;;;;;5072529;28;20641;-67
2022/03/13 09:29:54;;;;;;;13.05;8.57;;;11.80;69.60;;;;;;5069635;28;20131;-67
2022/03/13 09:32:25;;;;;;;12.85;9.18;;;11.80;68.40;;;;;;5063661;28;20625;-67
2022/03/13 09:34:50;;;;;;;11.05;9.32;;;11.90;69.30;;;;;;5070657;28;20062;-67
2022/03/13 09:37:16;;;;;;;14.98;9.23;;;11.80;66.30;;;;;;5067795;28;20036;-67
2022/03/13 09:39:43;;;;;;;13.73;9.45;;;11.80;68.10;;;;;;5067887;28;20638;-67
2022/03/13 09:42:09;;;;;;;12.55;8.93;;;11.90;66.20;;;;;;5065070;28;20033;-67
2022/03/13 09:44:34;;;;;;;12.98;10.32;;;11.60;64.60;;;;;;5070838;28;20047;-67
2022/03/13 09:47:00;;;;;;;12.07;9.38;;;11.70;67.20;;;;;;5067762;28;20044;-67
2022/03/13 09:49:27;;;;;;;12.98;10.32;;;11.80;67.40;;;;;;5067970;28;20544;-67
2022/03/13 09:51:53;;;;;;;11.88;9.52;;;11.80;65.40;;;;;;5068322;28;20044;-67
2022/03/13 09:54:18;;;;;;;11.80;9.48;;;11.90;67.30;;;;;;5051600;28;20048;-67
2022/03/13 09:56:44;;;;;;;12.18;9.43;;;12.10;68.10;;;;;;5068756;28;20135;-67
2022/03/13 09:59:10;;;;;;;10.68;9.13;;;12.30;67.80;;;;;;5071847;28;20550;-67
2022/03/13 10:01:35;;;;;;;12.27;9.63;;;12.40;64.90;;;;;;5068343;28;20440;-67
2022/03/13 10:04:04;;;;;;;13.75;9.75;;;12.50;65.10;;;;;;5069228;28;20036;-67
2022/03/13 10:06:30;;;;;;;11.30;8.73;;;12.50;62.90;;;;;;5065099;28;20045;-67
2022/03/13 10:08:55;;;;;;;12.10;8.93;;;12.40;63.60;;;;;;5068602;28;20052;-67
2022/03/13 10:11:34;;;;;;;15.20;10.15;;;12.50;64.00;;;;;;5068658;28;20049;-67
2022/03/13 10:14:07;;;;;;;13.52;9.90;;;12.70;63.50;;;;;;5067570;28;20052;-67
2022/03/13 10:16:39;;;;;;;13.38;9.80;;;12.80;65.40;;;;;;5070009;28;20044;-67
2022/03/13 10:19:18;;;;;;;10.30;8.07;;;13.00;64.70;;;;;;5070898;28;20154;-67
2022/03/13 10:22:07;;;;;;;14.70;11.02;;;13.00;62.20;;;;;;5070209;28;20032;-67
2022/03/13 10:24:46;;;;;;;14.80;9.93;;;13.10;62.70;;;;;;5067246;28;20051;-67
2022/03/13 10:27:17;;;;;;;14.43;9.63;;;13.30;64.00;;;;;;5098805;28;20126;-68
2022/03/13 10:29:45;;;;;;;11.27;9.88;;;13.10;61.80;;;;;;5069769;28;20460;-67
2022/03/13 10:32:12;;;;;;;11.77;10.50;;;13.20;62.50;;;;;;5061177;28;20044;-67
2022/03/13 10:34:39;;;;;;;13.50;10.70;;;13.40;62.80;;;;;;5098206;28;20053;-68
2022/03/13 10:37:05;;;;;;;11.30;9.30;;;13.40;63.20;;;;;;5067494;28;20632;-68
2022/03/13 10:39:33;;;;;;;13.18;10.70;;;13.60;62.00;;;;;;5070678;28;20044;-68
2022/03/13 10:42:02;;;;;;;10.70;9.60;;;13.60;61.20;;;;;;5067494;28;20063;-68
2022/03/13 10:44:36;;;;;;;12.23;9.85;;;13.70;62.90;;;;;;5067097;28;20390;-68
2022/03/13 10:47:05;;;;;;;12.23;9.50;;;14.00;63.30;;;;;;5066149;28;20043;-67
2022/03/13 10:49:52;;;;;;;14.13;10.43;;;14.10;63.20;;;;;;5068398;28;20429;-68
2022/03/13 10:52:31;;;;;;;11.60;9.88;;;14.20;61.00;;;;;;5068677;28;20133;-68
2022/03/13 10:55:24;;;;;;;12.88;10.57;;;14.20;61.40;;;;;;5088236;28;20048;-68
2022/03/13 10:57:55;;;;;;;12.65;9.85;;;14.50;62.40;;;;;;5068048;28;20394;-68
2022/03/13 11:00:22;;;;;;;12.02;10.73;;;14.30;60.00;;;;;;5068851;28;20115;-68
2022/03/13 11:02:48;;;;;;;14.75;11.15;;;14.40;60.60;;;;;;5100656;28;20458;-68
2022/03/13 11:05:14;;;;;;;21.10;10.82;;;14.50;59.70;;;;;;5069820;28;20046;-68
2022/03/13 11:07:39;;;;;;;13.75;10.68;;;14.40;60.40;;;;;;5070627;28;20028;-68
2022/03/13 11:10:07;;;;;;;13.68;10.90;;;14.50;61.00;;;;;;5069221;28;20050;-68
2022/03/13 11:12:34;;;;;;;14.52;11.13;;;14.50;60.60;;;;;;5069739;28;20037;-68
2022/03/13 11:15:02;;;;;;;16.80;11.65;;;14.40;61.60;;;;;;5067885;28;20371;-68
2022/03/13 11:17:33;;;;;;;13.27;11.30;;;14.60;60.50;;;;;;5069362;28;20105;-67
2022/03/13 11:20:01;;;;;;;14.27;12.05;;;14.40;60.40;;;;;;5068729;28;20436;-67
2022/03/13 11:22:28;;;;;;;12.52;11.10;;;14.70;61.80;;;;;;5067742;28;20055;-68
2022/03/13 11:25:07;;;;;;;16.50;10.93;;;15.00;63.70;;;;;;5069749;28;20509;-68
2022/03/13 11:27:38;;;;;;;16.55;11.63;;;15.30;61.80;;;;;;5067591;28;20043;-68
2022/03/13 11:30:06;;;;;;;13.15;10.90;;;15.20;58.20;;;;;;5068997;28;20097;-68
2022/03/13 11:32:46;;;;;;;11.80;10.55;;;15.20;59.80;;;;;;5066929;28;20053;-68
2022/03/13 11:35:18;;;;;;;15.50;12.15;;;15.00;60.60;;;;;;5099496;28;20113;-68
2022/03/13 11:38:14;;;;;;;14.85;11.23;;;15.00;62.00;;;;;;5077865;28;20040;-68
2022/03/13 11:40:40;;;;;;;13.97;10.97;;;15.00;60.90;;;;;;5070120;28;20398;-68
2022/03/13 11:43:10;;;;;;;16.90;12.32;;;15.10;61.20;;;;;;5051744;28;20037;-68
2022/03/13 11:45:39;;;;;;;13.48;10.70;;;14.90;58.90;;;;;;5066015;28;20123;-68
2022/03/13 11:48:05;;;;;;;15.13;11.50;;;14.90;60.40;;;;;;5097088;28;20087;-68
2022/03/13 11:50:51;;;;;;;15.60;12.10;;;14.80;61.80;;;;;;5068551;28;20059;-68
2022/03/13 11:53:23;;;;;;;12.25;11.02;;;14.80;60.10;;;;;;5064575;28;20048;-68
2022/03/13 11:55:58;;;;;;;14.85;11.13;;;15.00;62.20;;;;;;5065553;28;21145;-68
2022/03/13 11:58:43;;;;;;;17.65;11.75;;;15.10;60.50;;;;;;5066745;28;20054;-68
2022/03/13 12:01:12;;;;;;;14.80;11.13;;;15.10;59.20;;;;;;5067663;28;20476;-68
2022/03/13 12:03:38;;;;;;;14.40;11.65;;;15.10;59.80;;;;;;5098976;28;20486;-68
2022/03/13 12:06:05;;;;;;;12.13;10.85;;;15.20;60.40;;;;;;5067485;28;20063;-68
2022/03/13 12:09:05;;;;;;;13.95;10.15;;;15.20;58.40;;;;;;5066524;28;20048;-68
2022/03/13 12:11:50;;;;;;;14.98;10.57;;;15.30;63.20;;;;;;5067132;28;20672;-68
2022/03/13 12:14:18;;;;;;;13.07;11.18;;;15.60;61.50;;;;;;5067750;28;20036;-68
2022/03/13 12:16:45;;;;;;;12.35;10.75;;;15.70;60.90;;;;;;5065706;28;20054;-68
2022/03/13 12:19:12;;;;;;;13.15;11.10;;;15.90;60.30;;;;;;5068035;28;20410;-68
2022/03/13 12:21:43;;;;;;;11.48;9.90;;;16.00;59.00;;;;;;5051374;28;20124;-68
2022/03/13 12:24:18;;;;;;;18.33;11.43;;;16.20;61.00;;;;;;5065975;28;20036;-68
2022/03/13 12:26:48;;;;;;;13.80;10.80;;;16.20;58.90;;;;;;5065699;28;20514;-68
2022/03/13 12:29:18;;;;;;;12.45;10.63;;;16.30;59.10;;;;;;5094013;28;20078;-68
2022/03/13 12:31:48;;;;;;;14.80;11.25;;;15.90;57.50;;;;;;5067654;28;20086;-68
2022/03/13 12:34:22;;;;;;;12.38;10.98;;;15.80;57.10;;;;;;5067033;28;20044;-68
2022/03/13 12:36:49;;;;;;;13.98;11.73;;;15.60;56.90;;;;;;5099252;28;20036;-68
2022/03/13 12:39:15;;;;;;;13.40;10.85;;;15.50;59.60;;;;;;5066894;28;20465;-68